Zion, Iowa
Current Conditions -  °F | °C
As of 5:55 PM on Sunday 21 Dec 2014 (Local Time) from KCSQ Reporting Station
Haze Haze  
Wind Chill: 31°   Ceiling: 700
Heat Index: 39°   Visibility: 3mi
Dew Point: 39°   Wind: 14mph
Humidity: 100%   Direction: 170°S
Pressure: 29.78"   Gusts: NA
Location:  41.2318°N, 94.3386°W
Report Text: KCSQ 212355Z AUTO 17012KT 3SM BR OVC007 04/04 A2978 RMK AO2
Loading
Personal Weather Stations






























Interactive Weather Map New forecast layout! Learn more

10-Day Weather Forecast

Advertisements
Track Severe Weather on mobile